.
WxDataArchive / Data Records for 2008-04-05
2008-04-04 April 2008 2008-04-06

Data Records for Saturday, 05 April 2008

Time	Temp	Chill	HIndex	Humid	Dewpt	 Wind 	HiWind	WindDir	Rain 	Barom 
-----	----	-----	------	-----	-----	------	------	-------	-----	----- 
00:00	35.9	35.9	35.9	95	34.6	0	0	---	0.00	29.907 
00:05	35.9	35.9	35.9	95	34.6	0	1	292	0.00	29.907 
00:10	35.9	35.9	35.9	95	34.6	0	0	---	0.00	29.907 
00:15	35.8	35.8	35.8	95	34.5	0	1	292	0.00	29.909 
00:20	35.8	35.8	35.8	95	34.5	0	0	---	0.00	29.909 
00:25	35.6	35.6	35.6	95	34.3	0	0	---	0.00	29.912 
00:30	35.5	35.5	35.5	95	34.2	0	0	---	0.00	29.914 
00:35	35.5	35.5	35.5	95	34.2	0	0	---	0.00	29.916 
00:40	35.3	35.3	35.3	95	34.0	0	0	---	0.00	29.919 
00:45	35.0	35.0	35.0	95	33.7	0	0	---	0.00	29.918 
00:50	34.7	34.7	34.7	95	33.4	0	1	292	0.00	29.921 
00:55	34.6	34.6	34.6	95	33.3	0	0	---	0.00	29.922 
01:00	34.4	34.4	34.4	95	33.1	0	1	292	0.00	29.924 
01:05	34.7	34.7	34.7	95	33.4	0	1	292	0.00	29.923 
01:10	34.9	34.9	34.9	95	33.6	0	1	292	0.00	29.923 
01:15	34.9	34.9	34.9	95	33.6	0	1	292	0.00	29.928 
01:20	35.2	35.2	35.2	96	34.2	0	1	292	0.00	29.931 
01:25	35.2	35.2	35.2	95	33.9	0	1	292	0.00	29.930 
01:30	35.2	35.2	35.2	95	33.9	0	1	292	0.00	29.933 
01:35	35.2	35.2	35.2	95	33.9	0	1	292	0.00	29.933 
01:40	35.2	35.2	35.2	95	33.9	0	1	292	0.00	29.933 
01:45	35.2	35.2	35.2	96	34.2	0	1	292	0.00	29.935 
01:50	35.2	35.2	35.2	95	33.9	0	1	292	0.00	29.935 
01:55	35.2	35.2	35.2	95	33.9	0	1	292	0.00	29.935 
02:00	35.3	35.3	35.3	96	34.3	0	2	292	0.00	29.936 
02:05	35.3	35.3	35.3	96	34.3	0	2	292	0.00	29.935 
02:10	35.2	35.2	35.2	96	34.2	0	1	292	0.00	29.937 
02:15	35.0	35.0	35.0	95	33.7	0	2	292	0.00	29.938 
02:20	35.0	35.0	35.0	95	33.7	0	1	292	0.00	29.937 
02:25	34.9	34.9	34.9	95	33.6	0	1	292	0.00	29.937 
02:30	34.7	34.7	34.7	95	33.4	0	1	292	0.00	29.936 
02:35	34.4	34.4	34.4	95	33.1	0	0	---	0.00	29.936 
02:40	34.3	34.3	34.3	95	33.0	0	0	---	0.00	29.938 
02:45	33.8	33.8	33.8	95	32.5	0	0	---	0.00	29.938 
02:50	33.5	33.5	33.5	95	32.2	0	0	---	0.00	29.938 
02:55	33.1	33.1	33.1	95	31.8	0	0	---	0.00	29.938 
03:00	32.8	32.8	32.8	95	31.5	0	0	---	0.00	29.937 
03:05	32.5	32.5	32.5	95	31.2	0	0	---	0.00	29.936 
03:10	32.1	32.1	32.1	95	30.8	0	0	---	0.00	29.940 
03:15	31.8	31.8	31.8	95	30.5	0	0	---	0.00	29.941 
03:20	31.5	31.5	31.5	95	30.2	0	0	---	0.00	29.941 
03:25	31.6	31.6	31.6	95	30.3	0	0	---	0.00	29.941 
03:30	31.5	31.5	31.5	95	30.2	0	0	---	0.00	29.941 
03:35	31.3	31.3	31.3	95	30.0	0	0	---	0.00	29.942 
03:40	31.0	31.0	31.0	95	29.7	0	0	---	0.00	29.944 
03:45	30.9	30.9	30.9	95	29.6	0	0	---	0.00	29.943 
03:50	30.6	30.6	30.6	95	29.3	0	0	---	0.00	29.944 
03:55	30.4	30.4	30.4	95	29.1	0	0	---	0.00	29.946 
04:00	30.3	30.3	30.3	95	29.0	0	0	---	0.00	29.949 
04:05	30.1	30.1	30.1	95	28.8	0	0	---	0.00	29.951 
04:10	30.1	30.1	30.1	95	28.8	0	0	---	0.00	29.951 
04:15	30.1	30.1	30.1	95	28.8	0	0	---	0.00	29.954 
04:20	30.0	30.0	30.0	95	28.7	0	0	---	0.00	29.955 
04:25	30.0	30.0	30.0	95	28.7	0	0	---	0.00	29.958 
04:30	30.0	30.0	30.0	95	28.7	0	0	---	0.00	29.959 
04:35	29.8	29.8	29.8	95	28.5	0	0	---	0.00	29.959 
04:40	29.7	29.7	29.7	95	28.4	0	0	---	0.00	29.960 
04:45	29.5	29.5	29.5	95	28.2	0	0	---	0.00	29.960 
04:50	29.4	29.4	29.4	95	28.1	0	0	---	0.00	29.960 
04:55	29.3	29.3	29.3	95	28.0	0	0	---	0.00	29.961 
05:00	29.3	29.3	29.3	95	28.0	0	0	---	0.00	29.963 
05:05	29.3	29.3	29.3	95	28.0	0	0	---	0.00	29.966 
05:10	29.3	29.3	29.3	95	28.0	0	0	---	0.00	29.969 
05:15	29.1	29.1	29.1	95	27.9	0	0	---	0.00	29.970 
05:20	29.1	29.1	29.1	95	27.9	0	0	---	0.00	29.971 
05:25	29.0	29.0	29.0	95	27.8	0	0	---	0.00	29.972 
05:30	29.0	29.0	29.0	95	27.8	0	0	---	0.00	29.974 
05:35	29.0	29.0	29.0	95	27.8	0	0	---	0.00	29.974 
05:40	28.8	28.8	28.8	95	27.6	0	0	---	0.00	29.974 
05:45	28.8	28.8	28.8	95	27.6	0	0	---	0.00	29.976 
05:50	28.8	28.8	28.8	95	27.6	0	0	---	0.00	29.978 
05:55	29.0	29.0	29.0	95	27.8	0	0	---	0.00	29.980 
06:00	29.1	29.1	29.1	95	27.9	0	0	---	0.00	29.982 
06:05	29.4	29.4	29.4	96	28.4	0	0	---	0.00	29.985 
06:10	29.5	29.5	29.5	96	28.5	0	0	---	0.00	29.982 
06:15	29.5	29.5	29.5	96	28.5	0	0	---	0.00	29.986 
06:20	29.4	29.4	29.4	96	28.4	0	0	---	0.00	29.989 
06:25	29.4	29.4	29.4	95	28.1	0	0	---	0.00	29.991 
06:30	29.3	29.3	29.3	95	28.0	0	0	---	0.00	29.992 
06:35	29.3	29.3	29.3	95	28.0	0	0	---	0.00	29.995 
06:40	29.1	29.1	29.1	95	27.9	0	0	---	0.00	30.004 
06:45	29.1	29.1	29.1	96	28.1	0	0	---	0.00	30.006 
06:50	29.3	29.3	29.3	96	28.3	0	0	---	0.00	30.005 
06:55	29.4	29.4	29.4	96	28.4	0	0	---	0.00	30.007 
07:00	30.0	30.0	30.0	96	29.0	0	0	---	0.00	30.005 
07:05	30.7	30.7	30.7	96	29.7	0	0	---	0.00	30.007 
07:10	31.5	31.5	31.5	96	30.5	0	1	292	0.00	30.010 
07:15	32.4	32.4	32.4	96	31.4	0	1	292	0.00	30.015 
07:20	33.1	33.1	33.1	96	32.1	0	1	292	0.00	30.017 
07:25	33.7	33.7	33.7	96	32.7	0	1	292	0.00	30.018 
07:30	34.3	34.3	34.3	96	33.3	0	0	---	0.00	30.018 
07:35	34.7	34.7	34.7	96	33.7	0	0	---	0.00	30.018 
07:40	35.3	35.3	35.3	97	34.5	0	1	292	0.00	30.019 
07:45	36.0	36.0	36.0	97	35.2	0	0	---	0.00	30.018 
07:50	36.3	36.3	36.3	96	35.3	0	1	292	0.00	30.020 
07:55	36.8	36.8	36.8	96	35.8	0	2	292	0.00	30.024 
08:00	37.2	37.2	37.2	96	36.2	0	1	292	0.00	30.025 
08:05	37.6	37.6	37.6	96	36.6	0	3	270	0.00	30.030 
08:10	38.0	38.0	38.0	96	37.0	0	2	270	0.00	30.033 
08:15	38.5	38.5	38.5	96	37.5	1	4	270	0.00	30.032 
08:20	38.9	38.9	38.9	96	37.9	0	4	248	0.00	30.031 
08:25	39.5	39.5	39.5	96	38.5	0	2	248	0.00	30.032 
08:30	40.1	40.1	40.1	96	39.1	1	4	248	0.00	30.033 
08:35	40.8	40.8	40.8	95	39.5	1	3	248	0.00	30.034 
08:40	41.3	41.3	41.3	94	39.7	1	4	225	0.00	30.036 
08:45	42.2	42.2	42.2	92	40.0	0	3	225	0.00	30.039 
08:50	42.9	42.9	42.9	90	40.2	1	4	248	0.00	30.042 
08:55	43.5	43.5	43.5	86	39.6	2	5	248	0.00	30.042 
09:00	44.1	44.1	44.1	83	39.3	1	3	248	0.00	30.042 
09:05	44.6	44.6	44.6	82	39.4	0	3	248	0.00	30.042 
09:10	45.4	45.4	45.4	82	40.2	0	2	248	0.00	30.039 
09:15	46.0	46.0	46.0	80	40.2	0	3	248	0.00	30.037 
09:20	46.8	46.8	46.8	77	40.0	0	2	248	0.00	30.037 
09:25	47.4	47.4	47.4	76	40.2	0	2	248	0.00	30.040 
09:30	48.2	48.2	48.2	76	41.0	1	3	248	0.00	30.042 
09:35	48.3	48.3	48.3	73	40.1	1	3	135	0.00	30.042 
09:40	48.6	48.6	48.6	74	40.7	0	2	90	0.00	30.045 
09:45	48.9	48.9	48.9	72	40.3	1	3	112	0.00	30.048 
09:50	49.2	49.2	49.2	70	39.8	1	3	270	0.00	30.050 
09:55	49.2	49.2	49.2	69	39.5	1	4	248	0.00	30.053 
10:00	49.5	49.5	49.5	68	39.4	1	5	248	0.00	30.048 
10:05	49.6	49.6	49.6	66	38.7	1	3	248	0.00	30.053 
10:10	50.1	50.1	50.1	68	40.0	1	4	248	0.00	30.052 
10:15	50.4	50.4	50.4	67	39.9	1	5	248	0.00	30.051 
10:20	51.0	51.0	51.0	67	40.4	1	5	270	0.00	30.044 
10:25	51.7	51.7	51.7	65	40.3	1	4	90	0.00	30.044 
10:30	52.0	52.0	52.0	66	41.0	2	5	112	0.00	30.048 
10:35	52.6	52.6	52.6	64	40.8	2	4	90	0.00	30.045 
10:40	53.2	53.2	53.2	64	41.3	1	4	112	0.00	30.043 
10:45	53.3	53.3	53.3	62	40.6	1	4	270	0.00	30.039 
10:50	53.9	53.9	53.9	63	41.6	1	4	112	0.00	30.037 
10:55	54.1	54.1	54.1	62	41.4	1	4	112	0.00	30.038 
11:00	54.4	54.4	54.4	60	40.8	2	5	112	0.00	30.038 
11:05	54.2	54.2	54.2	58	39.7	1	5	90	0.00	30.040 
11:10	54.5	54.5	54.5	58	40.0	2	6	135	0.00	30.042 
11:15	54.8	54.8	54.8	58	40.3	2	6	112	0.00	30.040 
11:20	55.3	55.3	55.3	60	41.7	1	4	112	0.00	30.038 
11:25	55.7	55.7	55.7	61	42.5	1	2	112	0.00	30.035 
11:30	56.3	56.3	56.3	57	41.3	0	2	90	0.00	30.035 
11:35	56.5	56.5	56.5	54	40.1	1	4	338	0.00	30.035 
11:40	56.5	56.5	56.5	57	41.5	2	4	270	0.00	30.034 
11:45	56.7	56.7	56.7	53	39.8	1	3	270	0.00	30.032 
11:50	56.9	56.9	56.9	47	36.9	1	4	248	0.00	30.033 
11:55	57.3	57.3	57.3	52	39.8	0	2	112	0.00	30.026 
12:00	57.3	57.3	57.3	47	37.2	1	3	135	0.00	30.018 
12:05	57.3	57.3	57.3	48	37.8	0	2	135	0.00	30.020 
12:10	57.5	57.5	57.5	51	39.5	0	2	112	0.00	30.021 
12:15	57.5	57.5	57.5	45	36.3	1	3	248	0.00	30.019 
12:20	57.8	57.8	57.8	47	37.7	1	2	248	0.00	30.019 
12:25	57.8	57.8	57.8	46	37.2	1	3	248	0.00	30.019 
12:30	58.0	58.0	58.0	46	37.3	1	3	248	0.00	30.019 
12:35	57.6	57.6	57.6	47	37.5	2	4	248	0.00	30.019 
12:40	57.8	57.8	57.8	50	39.3	2	4	112	0.00	30.018 
12:45	57.8	57.8	57.8	49	38.8	1	5	112	0.00	30.017 
12:50	57.6	57.6	57.6	44	35.8	2	5	248	0.00	30.018 
12:55	57.3	57.3	57.3	49	38.3	1	2	112	0.00	30.020 
13:00	57.8	57.8	57.8	50	39.3	1	4	248	0.00	30.016 
13:05	58.3	58.3	58.3	47	38.2	1	4	135	0.00	30.018 
13:10	58.6	58.6	58.6	48	39.0	1	5	248	0.00	30.019 
13:15	58.9	58.9	58.9	46	38.2	2	6	90	0.00	30.016 
13:20	59.0	59.0	59.0	48	39.3	1	5	112	0.00	30.015 
13:25	58.9	58.9	58.9	46	38.2	2	7	112	0.00	30.012 
13:30	58.7	58.7	58.7	50	40.1	2	5	112	0.00	30.005 
13:35	58.7	58.7	58.7	47	38.5	2	6	90	0.00	30.002 
13:40	58.6	58.6	58.6	48	39.0	2	4	112	0.00	30.002 
13:45	58.7	58.7	58.7	45	37.4	1	5	112	0.00	30.001 
13:50	58.6	58.6	58.6	46	37.9	2	5	112	0.00	30.002 
13:55	58.4	58.4	58.4	45	37.1	2	6	112	0.00	30.001 
14:00	58.6	58.6	58.6	47	38.4	1	4	90	0.00	30.002 
14:05	58.6	58.6	58.6	44	36.8	1	5	112	0.00	30.004 
14:10	58.6	58.6	58.6	44	36.8	2	4	90	0.00	30.003 
14:15	58.7	58.7	58.7	44	36.8	1	3	135	0.00	30.005 
14:20	58.9	58.9	58.9	44	37.0	1	4	248	0.00	30.002 
14:25	59.0	59.0	59.0	45	37.7	1	3	248	0.00	29.997 
14:30	59.3	59.3	59.3	46	38.5	2	5	90	0.00	29.992 
14:35	58.9	58.9	58.9	43	36.4	3	6	90	0.00	29.990 
14:40	58.6	58.6	58.6	43	36.2	2	5	90	0.00	29.987 
14:45	58.4	58.4	58.4	42	35.4	2	5	90	0.00	29.990 
14:50	58.6	58.6	58.6	42	35.6	2	5	90	0.00	29.992 
14:55	58.3	58.3	58.3	43	35.9	4	7	112	0.00	29.993 
15:00	58.0	58.0	58.0	41	34.4	3	5	90	0.00	29.999 
15:05	58.0	58.0	58.0	42	35.0	2	5	90	0.00	30.002 
15:10	58.3	58.3	58.3	41	34.7	2	5	90	0.00	30.001 
15:15	58.0	58.0	58.0	44	36.2	2	6	90	0.00	29.998 
15:20	58.3	58.3	58.3	43	35.9	1	4	112	0.00	29.998 
15:25	58.9	58.9	58.9	43	36.4	1	3	315	0.00	29.994 
15:30	59.2	59.2	59.2	40	34.9	1	5	90	0.00	29.991 
15:35	59.3	59.3	59.3	42	36.2	1	3	90	0.00	29.992 
15:40	59.3	59.3	59.3	41	35.6	2	5	112	0.00	29.993 
15:45	59.2	59.2	59.2	41	35.5	2	4	112	0.00	29.992 
15:50	59.2	59.2	59.2	42	36.1	1	4	112	0.00	29.995 
15:55	59.2	59.2	59.2	40	34.9	1	6	68	0.00	29.995 
16:00	59.0	59.0	59.0	41	35.3	2	7	112	0.00	30.005 
16:05	59.0	59.0	59.0	42	35.9	1	3	112	0.00	30.005 
16:10	59.0	59.0	59.0	41	35.3	1	5	135	0.00	29.999 
16:15	58.7	58.7	58.7	43	36.3	1	5	68	0.00	29.997 
16:20	58.9	58.9	58.9	47	38.7	0	4	45	0.00	29.995 
16:25	58.9	58.9	58.9	43	36.4	2	6	112	0.00	29.993 
16:30	58.6	58.6	58.6	40	34.4	3	6	112	0.00	29.993 
16:35	58.6	58.6	58.6	44	36.8	1	5	112	0.00	29.993 
16:40	58.4	58.4	58.4	41	34.8	2	4	90	0.00	29.993 
16:45	58.4	58.4	58.4	42	35.4	1	3	90	0.00	29.994 
16:50	58.4	58.4	58.4	41	34.8	2	7	90	0.00	29.993 
16:55	58.4	58.4	58.4	43	36.0	3	5	90	0.00	29.993 
17:00	58.4	58.4	58.4	41	34.8	2	4	112	0.00	29.993 
17:05	58.3	58.3	58.3	42	35.3	1	5	158	0.00	29.993 
17:10	58.3	58.3	58.3	42	35.3	2	4	112	0.00	29.993 
17:15	58.1	58.1	58.1	41	34.5	1	4	90	0.00	29.993 
17:20	58.0	58.0	58.0	43	35.6	1	4	112	0.00	29.990 
17:25	57.6	57.6	57.6	42	34.7	2	5	112	0.00	29.992 
17:30	57.5	57.5	57.5	42	34.6	3	5	112	0.00	29.992 
17:35	57.5	57.5	57.5	42	34.6	2	4	90	0.00	29.990 
17:40	57.3	57.3	57.3	42	34.4	2	5	90	0.00	29.988 
17:45	57.2	57.2	57.2	42	34.3	2	6	90	0.00	29.985 
17:50	57.2	57.2	57.2	43	34.9	2	4	112	0.00	29.987 
17:55	57.0	57.0	57.0	43	34.7	1	4	90	0.00	29.990 
18:00	57.0	57.0	57.0	43	34.7	2	5	112	0.00	29.988 
18:05	56.9	56.9	56.9	45	35.8	1	3	112	0.00	29.989 
18:10	56.7	56.7	56.7	45	35.6	2	6	112	0.00	29.990 
18:15	56.6	56.6	56.6	46	36.1	2	4	112	0.00	29.990 
18:20	56.5	56.5	56.5	45	35.4	3	4	90	0.00	29.990 
18:25	56.2	56.2	56.2	45	35.1	2	4	112	0.00	29.991 
18:30	56.0	56.0	56.0	46	35.5	2	4	112	0.00	29.991 
18:35	55.9	55.9	55.9	46	35.4	2	5	112	0.00	29.991 
18:40	55.6	55.6	55.6	48	36.2	1	3	112	0.00	29.991 
18:45	55.4	55.4	55.4	48	36.0	1	2	112	0.00	29.993 
18:50	55.0	55.0	55.0	49	36.2	1	3	112	0.00	29.993 
18:55	54.7	54.7	54.7	50	36.4	0	2	112	0.00	29.993 
19:00	54.5	54.5	54.5	50	36.2	0	2	112	0.00	29.993 
19:05	54.2	54.2	54.2	50	36.0	1	2	112	0.00	29.989 
19:10	53.9	53.9	53.9	51	36.2	1	2	112	0.00	29.988 
19:15	53.6	53.6	53.6	52	36.4	0	2	112	0.00	29.987 
19:20	53.3	53.3	53.3	53	36.6	0	2	112	0.00	29.988 
19:25	53.1	53.1	53.1	54	36.9	0	1	112	0.00	29.988 
19:30	52.6	52.6	52.6	54	36.4	0	1	112	0.00	29.987 
19:35	52.3	52.3	52.3	55	36.6	0	2	112	0.00	29.989 
19:40	52.0	52.0	52.0	55	36.3	0	1	112	0.00	29.989 
19:45	51.9	51.9	51.9	56	36.7	0	2	112	0.00	29.990 
19:50	51.6	51.6	51.6	56	36.4	0	2	112	0.00	29.990 
19:55	51.4	51.4	51.4	57	36.7	0	1	112	0.00	29.990 
20:00	51.1	51.1	51.1	58	36.8	0	1	112	0.00	29.989 
20:05	50.8	50.8	50.8	58	36.6	0	1	112	0.00	29.984 
20:10	50.7	50.7	50.7	59	36.9	0	1	112	0.00	29.986 
20:15	50.4	50.4	50.4	59	36.6	0	1	112	0.00	29.988 
20:20	49.9	49.9	49.9	60	36.6	0	0	---	0.00	29.988 
20:25	49.5	49.5	49.5	61	36.6	0	1	112	0.00	29.989 
20:30	49.2	49.2	49.2	61	36.3	0	1	112	0.00	29.996 
20:35	49.1	49.1	49.1	61	36.2	0	1	112	0.00	29.999 
20:40	49.1	49.1	49.1	61	36.2	0	1	112	0.00	30.002 
20:45	48.8	48.8	48.8	61	36.0	0	0	---	0.00	30.001 
20:50	48.2	48.2	48.2	62	35.8	0	0	---	0.00	30.003 
20:55	47.6	47.6	47.6	63	35.6	0	0	---	0.00	30.004 
21:00	47.1	47.1	47.1	64	35.6	0	0	---	0.00	30.006 
21:05	46.5	46.5	46.5	66	35.8	0	0	---	0.00	30.002 
21:10	46.0	46.0	46.0	68	36.0	0	0	---	0.00	30.007 
21:15	45.5	45.5	45.5	69	35.9	0	0	---	0.00	30.008 
21:20	45.2	45.2	45.2	70	36.0	0	0	---	0.00	30.011 
21:25	44.8	44.8	44.8	71	36.0	0	0	---	0.00	30.013 
21:30	44.3	44.3	44.3	72	35.9	0	0	---	0.00	30.015 
21:35	44.1	44.1	44.1	72	35.7	0	0	---	0.00	30.015 
21:40	43.5	43.5	43.5	73	35.4	0	0	---	0.00	30.016 
21:45	43.1	43.1	43.1	75	35.7	0	0	---	0.00	30.019 
21:50	42.6	42.6	42.6	76	35.6	0	0	---	0.00	30.019 
21:55	42.3	42.3	42.3	77	35.6	0	0	---	0.00	30.019 
22:00	42.1	42.1	42.1	78	35.7	0	0	---	0.00	30.018 
22:05	41.8	41.8	41.8	79	35.8	0	0	---	0.00	30.014 
22:10	41.6	41.6	41.6	80	35.9	0	0	---	0.00	30.014 
22:15	41.5	41.5	41.5	82	36.4	0	0	---	0.00	30.014 
22:20	41.3	41.3	41.3	83	36.5	0	0	---	0.00	30.013 
22:25	41.1	41.1	41.1	84	36.6	0	0	---	0.00	30.010 
22:30	40.8	40.8	40.8	84	36.3	0	0	---	0.00	30.005 
22:35	40.5	40.5	40.5	84	36.1	0	0	---	0.00	30.004 
22:40	40.2	40.2	40.2	85	36.1	0	0	---	0.00	30.003 
22:45	40.1	40.1	40.1	86	36.3	0	0	---	0.00	30.002 
22:50	39.9	39.9	39.9	87	36.4	0	0	---	0.00	30.002 
22:55	39.8	39.8	39.8	88	36.5	0	0	---	0.00	30.002 
23:00	39.6	39.6	39.6	88	36.3	0	0	---	0.00	30.001 
23:05	39.5	39.5	39.5	88	36.2	0	0	---	0.00	29.998 
23:10	39.3	39.3	39.3	89	36.3	0	0	---	0.00	29.995 
23:15	39.2	39.2	39.2	89	36.2	0	0	---	0.00	29.992 
23:20	39.1	39.1	39.1	90	36.4	0	0	---	0.00	29.989 
23:25	38.9	38.9	38.9	90	36.2	0	0	---	0.00	29.989 
23:30	38.6	38.6	38.6	90	35.9	0	0	---	0.00	29.991 
23:35	38.5	38.5	38.5	90	35.8	0	0	---	0.00	29.992 
23:40	38.2	38.2	38.2	90	35.5	0	0	---	0.00	29.992 
23:45	38.2	38.2	38.2	90	35.5	0	0	---	0.00	29.994 
23:50	38.0	38.0	38.0	90	35.3	0	0	---	0.00	29.995 
23:55	37.8	37.8	37.8	90	35.1	0	0	---	0.00	29.994 

CoCoRaHS
IN-AL-39
A2 Web Hosting
Creative Commons License
GoDaddy
Look for:

loaded 2017-12-13 10:13:19 • last modified 2010-11-18 10:43:29
Privacy PolicyDisclaimer
• wx.awcolley.com is powered by PmWiki v.2002016 •
• all content (unless otherwise noted) © 2017 A W Colley